sensor_id;sensor_type;location;lat;lon;timestamp;temperature;humidity
8037;DHT22;4061;51.360;7.340;2023-06-24T00:11:28;19.20;56.50
8037;DHT22;4061;51.360;7.340;2023-06-24T00:16:22;19.30;71.20
8037;DHT22;4061;51.360;7.340;2023-06-24T00:18:53;19.40;66.10
8037;DHT22;4061;51.360;7.340;2023-06-24T00:21:20;18.90;61.40
8037;DHT22;4061;51.360;7.340;2023-06-24T00:26:15;19.20;70.10
8037;DHT22;4061;51.360;7.340;2023-06-24T00:31:11;19.40;70.50
8037;DHT22;4061;51.360;7.340;2023-06-24T00:36:05;18.90;60.30
8037;DHT22;4061;51.360;7.340;2023-06-24T00:45:57;19.00;56.90
8037;DHT22;4061;51.360;7.340;2023-06-24T00:48:24;18.60;71.10
8037;DHT22;4061;51.360;7.340;2023-06-24T01:00:47;18.80;71.90
8037;DHT22;4061;51.360;7.340;2023-06-24T01:03:23;18.70;57.40
8037;DHT22;4061;51.360;7.340;2023-06-24T01:05:50;18.60;72.20
8037;DHT22;4061;51.360;7.340;2023-06-24T01:08:18;18.50;72.30
8037;DHT22;4061;51.360;7.340;2023-06-24T01:10:48;18.50;72.50
8037;DHT22;4061;51.360;7.340;2023-06-24T01:18:11;18.60;68.30
8037;DHT22;4061;51.360;7.340;2023-06-24T01:20:45;18.50;57.70
8037;DHT22;4061;51.360;7.340;2023-06-24T01:26:44;18.40;57.80
8037;DHT22;4061;51.360;7.340;2023-06-24T01:37:11;18.30;58.10
8037;DHT22;4061;51.360;7.340;2023-06-24T01:42:11;18.20;58.10
8037;DHT22;4061;51.360;7.340;2023-06-24T01:49:39;18.20;58.20
8037;DHT22;4061;51.360;7.340;2023-06-24T01:52:08;18.20;58.20
8037;DHT22;4061;51.360;7.340;2023-06-24T01:57:06;18.20;58.30
8037;DHT22;4061;51.360;7.340;2023-06-24T02:02:04;18.20;58.30
8037;DHT22;4061;51.360;7.340;2023-06-24T02:07:02;18.10;58.40
8037;DHT22;4061;51.360;7.340;2023-06-24T02:09:29;18.10;58.50
8037;DHT22;4061;51.360;7.340;2023-06-24T02:16:54;18.10;73.20
8037;DHT22;4061;51.360;7.340;2023-06-24T02:19:22;17.80;75.00
8037;DHT22;4061;51.360;7.340;2023-06-24T02:21:51;18.00;58.80
8037;DHT22;4061;51.360;7.340;2023-06-24T02:24:19;18.00;58.90
8037;DHT22;4061;51.360;7.340;2023-06-24T02:34:08;17.80;75.60
8037;DHT22;4061;51.360;7.340;2023-06-24T02:41:30;18.20;76.20
8037;DHT22;4061;51.360;7.340;2023-06-24T02:46:24;17.40;71.90
8037;DHT22;4061;51.360;7.340;2023-06-24T02:51:22;18.00;76.50
8037;DHT22;4061;51.360;7.340;2023-06-24T02:53:50;18.10;59.20
8037;DHT22;4061;51.360;7.340;2023-06-24T02:56:19;18.10;59.20
8037;DHT22;4061;51.360;7.340;2023-06-24T02:58:48;18.10;59.20
8037;DHT22;4061;51.360;7.340;2023-06-24T03:03:43;18.50;74.20
8037;DHT22;4061;51.360;7.340;2023-06-24T03:06:14;18.20;76.60
8037;DHT22;4061;51.360;7.340;2023-06-24T03:08:43;18.20;76.80
8037;DHT22;4061;51.360;7.340;2023-06-24T03:11:12;18.10;59.20
8037;DHT22;4061;51.360;7.340;2023-06-24T03:13:40;18.00;76.80
8037;DHT22;4061;51.360;7.340;2023-06-24T03:18:37;18.20;77.10
8037;DHT22;4061;51.360;7.340;2023-06-24T03:21:05;17.40;76.40
8037;DHT22;4061;51.360;7.340;2023-06-24T03:25:59;17.70;76.50
8037;DHT22;4061;51.360;7.340;2023-06-24T03:35:50;18.20;77.00
8037;DHT22;4061;51.360;7.340;2023-06-24T03:40:43;18.40;69.20
8037;DHT22;4061;51.360;7.340;2023-06-24T03:45:37;18.80;72.20
8037;DHT22;4061;51.360;7.340;2023-06-24T03:53:00;18.30;77.70
8037;DHT22;4061;51.360;7.340;2023-06-24T03:57:54;18.60;77.80
8037;DHT22;4061;51.360;7.340;2023-06-24T04:02:48;19.00;77.80
8037;DHT22;4061;51.360;7.340;2023-06-24T04:05:16;19.40;59.60
8037;DHT22;4061;51.360;7.340;2023-06-24T04:10:12;19.50;77.50
8037;DHT22;4061;51.360;7.340;2023-06-24T04:15:07;19.90;69.50
8037;DHT22;4061;51.360;7.340;2023-06-24T04:17:34;19.70;77.50
8037;DHT22;4061;51.360;7.340;2023-06-24T04:22:30;19.70;59.00
8037;DHT22;4061;51.360;7.340;2023-06-24T04:27:24;19.70;64.70
8037;DHT22;4061;51.360;7.340;2023-06-24T04:29:51;20.00;77.10
8037;DHT22;4061;51.360;7.340;2023-06-24T04:34:44;20.00;76.60
8037;DHT22;4061;51.360;7.340;2023-06-24T04:42:07;20.30;76.00
8037;DHT22;4061;51.360;7.340;2023-06-24T04:44:33;20.60;76.40
8037;DHT22;4061;51.360;7.340;2023-06-24T04:54:21;20.60;75.50
8037;DHT22;4061;51.360;7.340;2023-06-24T04:56:49;21.10;58.10
8037;DHT22;4061;51.360;7.340;2023-06-24T04:59:17;21.20;75.60
8037;DHT22;4061;51.360;7.340;2023-06-24T05:04:11;21.20;75.90
8037;DHT22;4061;51.360;7.340;2023-06-24T05:11:32;21.10;75.90
8037;DHT22;4061;51.360;7.340;2023-06-24T05:14:00;20.90;57.70
8037;DHT22;4061;51.360;7.340;2023-06-24T05:21:21;21.10;62.40
8037;DHT22;4061;51.360;7.340;2023-06-24T05:28:42;21.80;75.30
8037;DHT22;4061;51.360;7.340;2023-06-24T05:43:28;22.10;64.80
8037;DHT22;4061;51.360;7.340;2023-06-24T05:45:54;22.40;73.90
8037;DHT22;4061;51.360;7.340;2023-06-24T05:53:16;22.70;73.90
8037;DHT22;4061;51.360;7.340;2023-06-24T05:58:10;23.30;68.80
8037;DHT22;4061;51.360;7.340;2023-06-24T06:05:32;24.00;55.60
8037;DHT22;4061;51.360;7.340;2023-06-24T06:22:43;24.90;53.90
8037;DHT22;4061;51.360;7.340;2023-06-24T06:25:09;24.90;71.00
8037;DHT22;4061;51.360;7.340;2023-06-24T06:30:04;25.20;70.80
8037;DHT22;4061;51.360;7.340;2023-06-24T06:32:31;24.80;70.50
8037;DHT22;4061;51.360;7.340;2023-06-24T06:34:58;25.30;70.60
8037;DHT22;4061;51.360;7.340;2023-06-24T06:39:53;25.00;53.30
8037;DHT22;4061;51.360;7.340;2023-06-24T07:04:26;25.80;69.70
8037;DHT22;4061;51.360;7.340;2023-06-24T07:11:46;26.00;68.30
8037;DHT22;4061;51.360;7.340;2023-06-24T07:14:14;26.20;51.50
8037;DHT22;4061;51.360;7.340;2023-06-24T07:24:03;26.00;68.20
8037;DHT22;4061;51.360;7.340;2023-06-24T07:28:57;26.30;67.90
8037;DHT22;4061;51.360;7.340;2023-06-24T07:43:41;26.90;66.10
8037;DHT22;4061;51.360;7.340;2023-06-24T07:51:03;27.30;65.50
8037;DHT22;4061;51.360;7.340;2023-06-24T07:53:29;27.20;65.40
8037;DHT22;4061;51.360;7.340;2023-06-24T07:55:58;27.70;53.20
8037;DHT22;4061;51.360;7.340;2023-06-24T08:03:19;28.20;65.20
8037;DHT22;4061;51.360;7.340;2023-06-24T08:23:01;28.50;48.10
8037;DHT22;4061;51.360;7.340;2023-06-24T08:45:07;29.30;63.30
8037;DHT22;4061;51.360;7.340;2023-06-24T08:52:33;29.80;46.60
8037;DHT22;4061;51.360;7.340;2023-06-24T09:07:26;30.10;46.20
8037;DHT22;4061;51.360;7.340;2023-06-24T09:09:53;30.40;62.40
8037;DHT22;4061;51.360;7.340;2023-06-24T09:17:17;29.50;46.70
8037;DHT22;4061;51.360;7.340;2023-06-24T09:24:43;28.80;47.10
8037;DHT22;4061;51.360;7.340;2023-06-24T09:32:09;28.80;47.20
8037;DHT22;4061;51.360;7.340;2023-06-24T09:39:36;29.40;46.50
8037;DHT22;4061;51.360;7.340;2023-06-24T09:44:31;29.90;50.20
8037;DHT22;4061;51.360;7.340;2023-06-24T09:49:26;29.90;45.60
8037;DHT22;4061;51.360;7.340;2023-06-24T09:54:24;30.20;45.10
8037;DHT22;4061;51.360;7.340;2023-06-24T10:04:17;30.80;44.30
8037;DHT22;4061;51.360;7.340;2023-06-24T10:06:45;30.80;44.30
8037;DHT22;4061;51.360;7.340;2023-06-24T10:09:12;31.00;60.30
8037;DHT22;4061;51.360;7.340;2023-06-24T10:16:36;30.80;61.90
8037;DHT22;4061;51.360;7.340;2023-06-24T10:21:50;30.70;43.90
8037;DHT22;4061;51.360;7.340;2023-06-24T10:24:28;30.60;43.80
8037;DHT22;4061;51.360;7.340;2023-06-24T10:29:31;30.50;43.90
8037;DHT22;4061;51.360;7.340;2023-06-24T10:34:39;30.60;43.60
8037;DHT22;4061;51.360;7.340;2023-06-24T10:37:14;30.60;43.50
8037;DHT22;4061;51.360;7.340;2023-06-24T10:50:11;30.60;43.10
8037;DHT22;4061;51.360;7.340;2023-06-24T10:55:08;30.40;60.20
8037;DHT22;4061;51.360;7.340;2023-06-24T11:00:03;30.50;42.50
8037;DHT22;4061;51.360;7.340;2023-06-24T11:07:26;30.40;42.30
8037;DHT22;4061;51.360;7.340;2023-06-24T11:14:50;30.40;59.50
8037;DHT22;4061;51.360;7.340;2023-06-24T11:39:25;30.10;41.50
8037;DHT22;4061;51.360;7.340;2023-06-24T11:41:52;29.90;41.30
8037;DHT22;4061;51.360;7.340;2023-06-24T11:51:47;29.80;41.00
8037;DHT22;4061;51.360;7.340;2023-06-24T11:54:15;29.90;40.90
8037;DHT22;4061;51.360;7.340;2023-06-24T12:16:29;30.20;39.70
8037;DHT22;4061;51.360;7.340;2023-06-24T12:41:02;30.80;45.30
8037;DHT22;4061;51.360;7.340;2023-06-24T12:53:20;30.20;35.60
8037;DHT22;4061;51.360;7.340;2023-06-24T13:03:08;30.10;35.20
8037;DHT22;4061;51.360;7.340;2023-06-24T13:10:30;30.60;36.80
8037;DHT22;4061;51.360;7.340;2023-06-24T13:20:19;30.50;35.10
8037;DHT22;4061;51.360;7.340;2023-06-24T13:25:13;30.00;34.80
8037;DHT22;4061;51.360;7.340;2023-06-24T13:27:41;29.70;34.80
8037;DHT22;4061;51.360;7.340;2023-06-24T13:30:08;29.70;34.90
8037;DHT22;4061;51.360;7.340;2023-06-24T13:32:35;29.30;34.60
8037;DHT22;4061;51.360;7.340;2023-06-24T13:35:03;29.70;34.90
8037;DHT22;4061;51.360;7.340;2023-06-24T13:37:30;29.70;34.80
8037;DHT22;4061;51.360;7.340;2023-06-24T13:39:57;29.60;34.70
8037;DHT22;4061;51.360;7.340;2023-06-24T13:44:53;30.10;34.50
8037;DHT22;4061;51.360;7.340;2023-06-24T13:49:48;30.00;34.70
8037;DHT22;4061;51.360;7.340;2023-06-24T13:54:42;30.00;34.70
8037;DHT22;4061;51.360;7.340;2023-06-24T13:57:08;29.90;34.90
8037;DHT22;4061;51.360;7.340;2023-06-24T13:59:35;29.90;34.70
8037;DHT22;4061;51.360;7.340;2023-06-24T14:02:03;30.40;35.00
8037;DHT22;4061;51.360;7.340;2023-06-24T14:04:30;30.20;34.70
8037;DHT22;4061;51.360;7.340;2023-06-24T14:06:57;30.00;34.30
8037;DHT22;4061;51.360;7.340;2023-06-24T14:09:24;30.10;34.30
8037;DHT22;4061;51.360;7.340;2023-06-24T14:11:50;29.70;34.20
8037;DHT22;4061;51.360;7.340;2023-06-24T14:14:17;29.80;34.30
8037;DHT22;4061;51.360;7.340;2023-06-24T14:19:12;29.50;33.90
8037;DHT22;4061;51.360;7.340;2023-06-24T14:21:39;29.70;36.60
8037;DHT22;4061;51.360;7.340;2023-06-24T14:24:06;29.50;36.40
8037;DHT22;4061;51.360;7.340;2023-06-24T14:26:35;29.40;33.50
8037;DHT22;4061;51.360;7.340;2023-06-24T14:29:02;29.40;33.50
8037;DHT22;4061;51.360;7.340;2023-06-24T14:31:30;29.40;33.30
8037;DHT22;4061;51.360;7.340;2023-06-24T14:36:25;29.30;33.20
8037;DHT22;4061;51.360;7.340;2023-06-24T14:41:18;29.30;32.90
8037;DHT22;4061;51.360;7.340;2023-06-24T14:46:13;29.30;32.40
8037;DHT22;4061;51.360;7.340;2023-06-24T14:51:07;29.30;32.00
8037;DHT22;4061;51.360;7.340;2023-06-24T14:53:35;29.10;31.80
8037;DHT22;4061;51.360;7.340;2023-06-24T14:56:01;29.00;31.90
8037;DHT22;4061;51.360;7.340;2023-06-24T15:00:55;28.80;31.70
8037;DHT22;4061;51.360;7.340;2023-06-24T15:03:22;28.80;31.70
8037;DHT22;4061;51.360;7.340;2023-06-24T15:08:15;28.70;31.70
8037;DHT22;4061;51.360;7.340;2023-06-24T15:10:43;28.70;31.80
8037;DHT22;4061;51.360;7.340;2023-06-24T15:13:10;28.70;31.80
8037;DHT22;4061;51.360;7.340;2023-06-24T15:18:04;28.80;31.60
8037;DHT22;4061;51.360;7.340;2023-06-24T15:22:58;28.70;31.50
8037;DHT22;4061;51.360;7.340;2023-06-24T15:27:53;28.80;31.80
8037;DHT22;4061;51.360;7.340;2023-06-24T15:30:20;28.60;31.90
8037;DHT22;4061;51.360;7.340;2023-06-24T15:32:47;28.60;32.10
8037;DHT22;4061;51.360;7.340;2023-06-24T15:35:13;28.50;32.30
8037;DHT22;4061;51.360;7.340;2023-06-24T15:37:40;28.40;32.40
8037;DHT22;4061;51.360;7.340;2023-06-24T15:40:08;28.40;32.70
8037;DHT22;4061;51.360;7.340;2023-06-24T15:42:35;28.40;32.90
8037;DHT22;4061;51.360;7.340;2023-06-24T15:45:04;28.50;33.30
8037;DHT22;4061;51.360;7.340;2023-06-24T15:54:52;28.30;33.80
8037;DHT22;4061;51.360;7.340;2023-06-24T15:59:46;28.20;34.00
8037;DHT22;4061;51.360;7.340;2023-06-24T16:02:14;28.20;34.10
8037;DHT22;4061;51.360;7.340;2023-06-24T16:04:41;28.10;34.10
8037;DHT22;4061;51.360;7.340;2023-06-24T16:09:34;28.10;34.50
8037;DHT22;4061;51.360;7.340;2023-06-24T16:12:01;28.00;34.70
8037;DHT22;4061;51.360;7.340;2023-06-24T16:16:54;28.00;34.80
8037;DHT22;4061;51.360;7.340;2023-06-24T16:19:22;27.90;34.60
8037;DHT22;4061;51.360;7.340;2023-06-24T16:21:49;27.90;34.50
8037;DHT22;4061;51.360;7.340;2023-06-24T16:26:43;27.80;34.60
8037;DHT22;4061;51.360;7.340;2023-06-24T16:29:09;27.90;34.70
8037;DHT22;4061;51.360;7.340;2023-06-24T16:36:31;27.80;34.60
8037;DHT22;4061;51.360;7.340;2023-06-24T16:41:25;27.90;34.80
8037;DHT22;4061;51.360;7.340;2023-06-24T16:46:19;27.80;34.60
8037;DHT22;4061;51.360;7.340;2023-06-24T16:48:46;27.80;34.70
8037;DHT22;4061;51.360;7.340;2023-06-24T16:53:41;27.80;34.70
8037;DHT22;4061;51.360;7.340;2023-06-24T16:56:07;27.70;34.70
8037;DHT22;4061;51.360;7.340;2023-06-24T16:58:34;27.80;34.80
8037;DHT22;4061;51.360;7.340;2023-06-24T17:01:01;27.80;34.90
8037;DHT22;4061;51.360;7.340;2023-06-24T17:08:22;27.70;34.60
8037;DHT22;4061;51.360;7.340;2023-06-24T17:10:50;27.60;34.40
8037;DHT22;4061;51.360;7.340;2023-06-24T17:13:17;27.60;34.40
8037;DHT22;4061;51.360;7.340;2023-06-24T17:18:12;27.70;34.50
8037;DHT22;4061;51.360;7.340;2023-06-24T17:23:06;27.60;34.50
8037;DHT22;4061;51.360;7.340;2023-06-24T17:25:33;27.70;34.50
8037;DHT22;4061;51.360;7.340;2023-06-24T17:28:01;27.70;34.40
8037;DHT22;4061;51.360;7.340;2023-06-24T17:32:54;27.80;34.40
8037;DHT22;4061;51.360;7.340;2023-06-24T17:35:21;28.10;34.00
8037;DHT22;4061;51.360;7.340;2023-06-24T17:37:48;28.50;33.20
8037;DHT22;4061;51.360;7.340;2023-06-24T17:40:15;28.90;32.90
8037;DHT22;4061;51.360;7.340;2023-06-24T17:45:10;29.40;32.00
8037;DHT22;4061;51.360;7.340;2023-06-24T17:47:37;29.50;31.90
8037;DHT22;4061;51.360;7.340;2023-06-24T17:50:04;29.70;31.70
8037;DHT22;4061;51.360;7.340;2023-06-24T17:52:31;29.80;31.60
8037;DHT22;4061;51.360;7.340;2023-06-24T17:54:57;29.60;31.70
8037;DHT22;4061;51.360;7.340;2023-06-24T17:57:24;29.40;32.00
8037;DHT22;4061;51.360;7.340;2023-06-24T17:59:50;29.10;32.40
8037;DHT22;4061;51.360;7.340;2023-06-24T18:02:18;28.80;32.90
8037;DHT22;4061;51.360;7.340;2023-06-24T18:04:45;28.60;33.30
8037;DHT22;4061;51.360;7.340;2023-06-24T18:07:12;28.30;33.60
8037;DHT22;4061;51.360;7.340;2023-06-24T20:00:09;24.60;39.40
8037;DHT22;4061;51.360;7.340;2023-06-24T20:24:42;23.90;53.30
8037;DHT22;4061;51.360;7.340;2023-06-24T20:29:36;23.70;56.60
8037;DHT22;4061;51.360;7.340;2023-06-24T20:49:14;23.30;61.00
8037;DHT22;4061;51.360;7.340;2023-06-24T20:51:41;23.50;61.50
8037;DHT22;4061;51.360;7.340;2023-06-24T21:13:51;23.50;61.40
8037;DHT22;4061;51.360;7.340;2023-06-24T21:16:18;23.00;60.70
8037;DHT22;4061;51.360;7.340;2023-06-24T21:23:39;22.40;58.40
8037;DHT22;4061;51.360;7.340;2023-06-24T21:26:06;22.70;58.10
8037;DHT22;4061;51.360;7.340;2023-06-24T21:28:34;22.60;43.20
8037;DHT22;4061;51.360;7.340;2023-06-24T21:43:16;22.50;56.20
8037;DHT22;4061;51.360;7.340;2023-06-24T21:45:44;22.50;42.90
8037;DHT22;4061;51.360;7.340;2023-06-24T21:53:04;22.50;51.30
8037;DHT22;4061;51.360;7.340;2023-06-24T21:57:58;21.80;57.00
8037;DHT22;4061;51.360;7.340;2023-06-24T22:00:25;22.30;57.20
8037;DHT22;4061;51.360;7.340;2023-06-24T22:05:21;22.40;54.70
8037;DHT22;4061;51.360;7.340;2023-06-24T22:10:15;22.40;58.10
8037;DHT22;4061;51.360;7.340;2023-06-24T22:15:09;22.40;57.90
8037;DHT22;4061;51.360;7.340;2023-06-24T22:20:06;22.20;44.00
8037;DHT22;4061;51.360;7.340;2023-06-24T22:22:33;22.20;54.20
8037;DHT22;4061;51.360;7.340;2023-06-24T22:44:37;21.90;58.10
8037;DHT22;4061;51.360;7.340;2023-06-24T22:47:04;21.80;58.40
8037;DHT22;4061;51.360;7.340;2023-06-24T22:52:00;21.70;46.00
8037;DHT22;4061;51.360;7.340;2023-06-24T22:54:30;21.70;46.10
8037;DHT22;4061;51.360;7.340;2023-06-24T23:09:12;21.40;59.60
8037;DHT22;4061;51.360;7.340;2023-06-24T23:14:08;21.60;55.80
8037;DHT22;4061;51.360;7.340;2023-06-24T23:31:24;21.70;58.80
8037;DHT22;4061;51.360;7.340;2023-06-24T23:38:47;21.50;54.50
8037;DHT22;4061;51.360;7.340;2023-06-24T23:48:36;21.40;52.20
8037;DHT22;4061;51.360;7.340;2023-06-24T23:55:57;21.20;59.50
